createdAt,value
2018-11-06T00:06:45.441Z,9.30
2018-11-06T00:16:48.688Z,9.30
2018-11-06T00:26:51.985Z,9.30
2018-11-06T00:36:55.229Z,9.10
2018-11-06T00:46:58.560Z,8.90
2018-11-06T00:57:01.833Z,8.90
2018-11-06T01:07:05.221Z,8.90
2018-11-06T01:17:08.492Z,8.60
2018-11-06T01:27:11.739Z,8.50
2018-11-06T01:37:14.984Z,8.40
2018-11-06T01:47:18.460Z,8.40
2018-11-06T01:57:21.752Z,8.50
2018-11-06T02:07:25.024Z,8.30
2018-11-06T02:17:28.292Z,8.30
2018-11-06T02:27:31.575Z,8.30
2018-11-06T02:37:34.841Z,8.00
2018-11-06T02:47:38.192Z,8.00
2018-11-06T02:57:41.983Z,8.10
2018-11-06T03:07:45.335Z,8.20
2018-11-06T03:17:48.551Z,8.10
2018-11-06T03:27:51.773Z,8.00
2018-11-06T03:37:54.989Z,8.10
2018-11-06T03:47:58.232Z,8.00
2018-11-06T03:58:01.471Z,8.10
2018-11-06T04:08:04.917Z,7.90
2018-11-06T04:18:08.128Z,7.80
2018-11-06T04:28:11.420Z,8.00
2018-11-06T04:38:14.641Z,7.80
2018-11-06T04:48:17.856Z,7.80
2018-11-06T04:58:21.097Z,7.70
2018-11-06T05:08:24.320Z,7.50
2018-11-06T05:18:27.552Z,7.50
2018-11-06T05:28:30.812Z,7.60
2018-11-06T05:38:34.112Z,7.70
2018-11-06T05:48:37.348Z,7.80
2018-11-06T05:58:40.652Z,7.70
2018-11-06T06:08:43.891Z,7.60
2018-11-06T06:18:47.101Z,7.60
2018-11-06T06:28:50.641Z,7.60
2018-11-06T06:38:54.092Z,7.60
2018-11-06T06:48:57.516Z,7.60
2018-11-06T06:59:00.780Z,7.60
2018-11-06T07:09:05.300Z,7.80
2018-11-06T07:19:08.492Z,7.90
2018-11-06T07:29:11.740Z,8.20
2018-11-06T07:39:14.957Z,8.20
2018-11-06T07:49:18.211Z,8.40
2018-11-06T07:59:21.520Z,8.40
2018-11-06T08:09:24.790Z,8.60
2018-11-06T08:19:28.244Z,8.60
2018-11-06T08:29:31.488Z,8.60
2018-11-06T08:39:34.700Z,8.80
2018-11-06T08:49:37.929Z,8.90
2018-11-06T08:59:41.756Z,8.80
2018-11-06T09:09:44.983Z,9.30
2018-11-06T09:19:48.360Z,9.30
2018-11-06T09:29:51.553Z,9.20
2018-11-06T09:39:54.783Z,9.30
2018-11-06T09:49:58.009Z,9.90
2018-11-06T10:00:01.290Z,10.00
2018-11-06T10:10:04.997Z,10.50
2018-11-06T10:20:08.973Z,10.80
2018-11-06T10:30:14.180Z,11.20
2018-11-06T10:40:18.909Z,11.60
2018-11-06T10:50:22.164Z,12.10
2018-11-06T11:00:30.709Z,12.50
2018-11-06T11:10:33.972Z,12.90
2018-11-06T11:20:37.232Z,13.10
2018-11-06T11:30:40.464Z,13.50
2018-11-06T11:40:43.680Z,13.80
2018-11-06T11:50:47.109Z,14.00
2018-11-06T12:00:50.345Z,14.40
2018-11-06T12:10:53.607Z,14.80
2018-11-06T12:20:56.832Z,15.00
2018-11-06T12:31:00.070Z,15.20
2018-11-06T12:41:03.426Z,15.20
2018-11-06T12:51:06.705Z,15.30
2018-11-06T13:01:09.968Z,15.30
2018-11-06T13:11:13.211Z,15.30
2018-11-06T13:21:17.367Z,15.40
2018-11-06T13:31:20.601Z,15.40
2018-11-06T13:41:23.963Z,15.40
2018-11-06T13:51:27.213Z,15.50
2018-11-06T14:01:30.440Z,15.50
2018-11-06T14:11:33.684Z,15.50
2018-11-06T14:21:36.917Z,15.50
2018-11-06T14:31:40.137Z,15.60
2018-11-06T14:41:43.359Z,15.50
2018-11-06T14:51:46.600Z,15.40
2018-11-06T15:01:49.878Z,15.30
2018-11-06T15:11:54.581Z,15.20
2018-11-06T15:21:58.281Z,15.00
2018-11-06T15:32:01.532Z,14.80
2018-11-06T15:42:04.862Z,14.70
2018-11-06T15:52:08.045Z,14.50
2018-11-06T16:02:11.309Z,14.20
2018-11-06T16:12:14.530Z,14.00
2018-11-06T16:22:17.776Z,13.90
2018-11-06T16:32:21.078Z,13.70
2018-11-06T16:42:24.985Z,13.50
2018-11-06T16:52:28.418Z,13.40
2018-11-06T17:02:31.704Z,13.30
2018-11-06T17:12:34.952Z,13.10
2018-11-06T17:22:38.225Z,12.90
2018-11-06T17:32:42.014Z,12.80
2018-11-06T17:42:45.393Z,12.70
2018-11-06T17:52:48.665Z,12.60
2018-11-06T18:02:51.887Z,12.40
2018-11-06T18:12:55.260Z,12.30
2018-11-06T18:22:58.495Z,12.20
2018-11-06T18:33:01.812Z,12.00
2018-11-06T18:43:05.162Z,11.90
2018-11-06T18:53:08.548Z,11.90
2018-11-06T19:03:11.784Z,11.70
2018-11-06T19:13:15.009Z,11.60
2018-11-06T19:23:18.228Z,11.60
2018-11-06T19:33:21.493Z,11.40
2018-11-06T19:43:25.620Z,11.30
2018-11-06T19:53:28.903Z,11.10
2018-11-06T20:03:32.163Z,11.10
2018-11-06T20:13:35.361Z,11.00
2018-11-06T20:23:38.621Z,11.00
2018-11-06T20:33:41.968Z,10.80
2018-11-06T20:43:45.071Z,10.80
2018-11-06T20:53:48.362Z,10.70
2018-11-06T21:03:51.613Z,10.60
2018-11-06T21:13:54.845Z,10.50
2018-11-06T21:23:58.123Z,10.40
2018-11-06T21:34:01.445Z,10.40
2018-11-06T21:44:04.633Z,10.40
2018-11-06T21:54:07.982Z,10.40
2018-11-06T22:04:11.237Z,10.40
2018-11-06T22:14:14.485Z,10.40
2018-11-06T22:24:17.831Z,10.40
2018-11-06T22:34:21.120Z,10.40
2018-11-06T22:44:24.380Z,10.40
2018-11-06T22:54:27.609Z,10.30
2018-11-06T23:04:30.884Z,10.30
2018-11-06T23:14:34.166Z,10.30
2018-11-06T23:24:37.366Z,10.10
2018-11-06T23:34:41.463Z,10.10
2018-11-06T23:44:44.701Z,10.10
2018-11-06T23:54:47.936Z,10.00
